sensor_id;sensor_type;location;lat;lon;timestamp;P1;durP1;ratioP1;P2;durP2;ratioP2
50056;SDS011;36875;49.468;11.200;2023-02-28T00:00:22;2.42;;;1.20;;
50056;SDS011;36875;49.468;11.200;2023-02-28T00:02:48;3.72;;;1.20;;
50056;SDS011;36875;49.468;11.200;2023-02-28T00:05:14;2.55;;;1.25;;
50056;SDS011;36875;49.468;11.200;2023-02-28T00:07:41;2.38;;;1.30;;
50056;SDS011;36875;49.468;11.200;2023-02-28T00:10:08;1.33;;;1.10;;
50056;SDS011;36875;49.468;11.200;2023-02-28T00:12:35;1.15;;;1.00;;
50056;SDS011;36875;49.468;11.200;2023-02-28T00:15:03;1.33;;;1.05;;
50056;SDS011;36875;49.468;11.200;2023-02-28T00:17:31;1.08;;;0.75;;
50056;SDS011;36875;49.468;11.200;2023-02-28T00:19:56;2.05;;;1.10;;
50056;SDS011;36875;49.468;11.200;2023-02-28T00:22:26;1.97;;;0.90;;
50056;SDS011;36875;49.468;11.200;2023-02-28T00:24:52;2.72;;;0.80;;
50056;SDS011;36875;49.468;11.200;2023-02-28T00:27:17;1.98;;;0.98;;
50056;SDS011;36875;49.468;11.200;2023-02-28T00:29:43;2.35;;;1.00;;
50056;SDS011;36875;49.468;11.200;2023-02-28T00:32:10;1.45;;;0.82;;
50056;SDS011;36875;49.468;11.200;2023-02-28T00:34:35;1.60;;;0.88;;
50056;SDS011;36875;49.468;11.200;2023-02-28T00:37:02;1.30;;;1.00;;
50056;SDS011;36875;49.468;11.200;2023-02-28T00:39:29;2.50;;;0.90;;
50056;SDS011;36875;49.468;11.200;2023-02-28T00:41:54;1.67;;;0.90;;
50056;SDS011;36875;49.468;11.200;2023-02-28T00:44:20;1.77;;;1.00;;
50056;SDS011;36875;49.468;11.200;2023-02-28T00:46:46;0.73;;;0.68;;
50056;SDS011;36875;49.468;11.200;2023-02-28T00:49:13;0.98;;;0.70;;
50056;SDS011;36875;49.468;11.200;2023-02-28T00:51:38;0.90;;;0.80;;
50056;SDS011;36875;49.468;11.200;2023-02-28T00:54:04;1.75;;;0.98;;
50056;SDS011;36875;49.468;11.200;2023-02-28T00:56:29;0.80;;;0.70;;
50056;SDS011;36875;49.468;11.200;2023-02-28T00:58:55;1.88;;;0.90;;
50056;SDS011;36875;49.468;11.200;2023-02-28T01:01:20;1.73;;;0.90;;
50056;SDS011;36875;49.468;11.200;2023-02-28T01:03:46;2.70;;;0.90;;
50056;SDS011;36875;49.468;11.200;2023-02-28T01:06:13;1.40;;;0.90;;
50056;SDS011;36875;49.468;11.200;2023-02-28T01:08:38;0.93;;;0.70;;
50056;SDS011;36875;49.468;11.200;2023-02-28T01:11:07;2.50;;;0.93;;
50056;SDS011;36875;49.468;11.200;2023-02-28T01:13:33;1.50;;;0.90;;
50056;SDS011;36875;49.468;11.200;2023-02-28T01:15:59;1.30;;;0.82;;
50056;SDS011;36875;49.468;11.200;2023-02-28T01:18:24;3.47;;;0.90;;
50056;SDS011;36875;49.468;11.200;2023-02-28T01:20:50;1.27;;;0.90;;
50056;SDS011;36875;49.468;11.200;2023-02-28T01:23:18;1.38;;;1.02;;
50056;SDS011;36875;49.468;11.200;2023-02-28T01:25:45;1.92;;;0.77;;
50056;SDS011;36875;49.468;11.200;2023-02-28T01:28:10;0.93;;;0.65;;
50056;SDS011;36875;49.468;11.200;2023-02-28T01:30:36;1.20;;;0.60;;
50056;SDS011;36875;49.468;11.200;2023-02-28T01:33:01;1.27;;;0.77;;
50056;SDS011;36875;49.468;11.200;2023-02-28T01:35:27;1.02;;;0.70;;
50056;SDS011;36875;49.468;11.200;2023-02-28T01:37:52;1.15;;;0.80;;
50056;SDS011;36875;49.468;11.200;2023-02-28T01:40:19;0.80;;;0.55;;
50056;SDS011;36875;49.468;11.200;2023-02-28T01:42:45;0.98;;;0.57;;
50056;SDS011;36875;49.468;11.200;2023-02-28T01:45:18;0.90;;;0.68;;
50056;SDS011;36875;49.468;11.200;2023-02-28T01:47:46;0.98;;;0.60;;
50056;SDS011;36875;49.468;11.200;2023-02-28T01:50:16;1.00;;;0.60;;
50056;SDS011;36875;49.468;11.200;2023-02-28T01:52:45;0.93;;;0.70;;
50056;SDS011;36875;49.468;11.200;2023-02-28T01:55:12;1.77;;;0.68;;
50056;SDS011;36875;49.468;11.200;2023-02-28T01:57:41;1.10;;;0.68;;
50056;SDS011;36875;49.468;11.200;2023-02-28T02:00:11;1.48;;;0.75;;
50056;SDS011;36875;49.468;11.200;2023-02-28T02:02:40;0.93;;;0.68;;
50056;SDS011;36875;49.468;11.200;2023-02-28T02:05:09;1.25;;;0.70;;
50056;SDS011;36875;49.468;11.200;2023-02-28T02:07:37;2.03;;;0.70;;
50056;SDS011;36875;49.468;11.200;2023-02-28T02:10:10;0.73;;;0.60;;
50056;SDS011;36875;49.468;11.200;2023-02-28T02:12:55;0.65;;;0.50;;
50056;SDS011;36875;49.468;11.200;2023-02-28T02:15:30;1.23;;;0.73;;
50056;SDS011;36875;49.468;11.200;2023-02-28T02:18:01;0.95;;;0.60;;
50056;SDS011;36875;49.468;11.200;2023-02-28T02:20:40;1.17;;;0.68;;
50056;SDS011;36875;49.468;11.200;2023-02-28T02:23:21;0.70;;;0.60;;
50056;SDS011;36875;49.468;11.200;2023-02-28T02:26:19;2.05;;;0.60;;
50056;SDS011;36875;49.468;11.200;2023-02-28T02:29:09;0.90;;;0.68;;
50056;SDS011;36875;49.468;11.200;2023-02-28T02:31:51;1.00;;;0.70;;
50056;SDS011;36875;49.468;11.200;2023-02-28T02:39:58;1.05;;;0.63;;
50056;SDS011;36875;49.468;11.200;2023-02-28T02:42:30;0.82;;;0.50;;
50056;SDS011;36875;49.468;11.200;2023-02-28T02:45:03;0.75;;;0.60;;
50056;SDS011;36875;49.468;11.200;2023-02-28T02:47:34;1.50;;;0.63;;
50056;SDS011;36875;49.468;11.200;2023-02-28T02:50:04;1.20;;;0.50;;
50056;SDS011;36875;49.468;11.200;2023-02-28T02:52:34;0.83;;;0.50;;
50056;SDS011;36875;49.468;11.200;2023-02-28T02:55:04;1.25;;;0.60;;
50056;SDS011;36875;49.468;11.200;2023-02-28T02:57:32;0.95;;;0.60;;
50056;SDS011;36875;49.468;11.200;2023-02-28T03:00:02;0.52;;;0.52;;
50056;SDS011;36875;49.468;11.200;2023-02-28T03:02:30;0.73;;;0.65;;
50056;SDS011;36875;49.468;11.200;2023-02-28T03:04:59;0.90;;;0.50;;
50056;SDS011;36875;49.468;11.200;2023-02-28T03:07:30;0.70;;;0.70;;
50056;SDS011;36875;49.468;11.200;2023-02-28T03:09:56;0.85;;;0.60;;
50056;SDS011;36875;49.468;11.200;2023-02-28T03:12:23;0.73;;;0.50;;
50056;SDS011;36875;49.468;11.200;2023-02-28T03:15:07;0.43;;;0.40;;
50056;SDS011;36875;49.468;11.200;2023-02-28T03:17:46;0.77;;;0.50;;
50056;SDS011;36875;49.468;11.200;2023-02-28T03:20:24;0.70;;;0.57;;
50056;SDS011;36875;49.468;11.200;2023-02-28T03:23:03;0.95;;;0.60;;
50056;SDS011;36875;49.468;11.200;2023-02-28T03:25:39;0.95;;;0.60;;
50056;SDS011;36875;49.468;11.200;2023-02-28T03:28:18;1.52;;;0.80;;
50056;SDS011;36875;49.468;11.200;2023-02-28T03:30:48;0.93;;;0.60;;
50056;SDS011;36875;49.468;11.200;2023-02-28T03:33:20;1.13;;;0.50;;
50056;SDS011;36875;49.468;11.200;2023-02-28T03:35:49;0.90;;;0.60;;
50056;SDS011;36875;49.468;11.200;2023-02-28T03:38:21;1.57;;;0.60;;
50056;SDS011;36875;49.468;11.200;2023-02-28T03:40:51;1.17;;;0.50;;
50056;SDS011;36875;49.468;11.200;2023-02-28T03:43:23;0.93;;;0.60;;
50056;SDS011;36875;49.468;11.200;2023-02-28T03:45:52;1.20;;;0.55;;
50056;SDS011;36875;49.468;11.200;2023-02-28T03:48:20;0.52;;;0.43;;
50056;SDS011;36875;49.468;11.200;2023-02-28T03:50:49;1.45;;;0.50;;
50056;SDS011;36875;49.468;11.200;2023-02-28T03:53:21;1.20;;;0.52;;
50056;SDS011;36875;49.468;11.200;2023-02-28T03:55:51;0.80;;;0.50;;
50056;SDS011;36875;49.468;11.200;2023-02-28T03:58:22;1.40;;;0.70;;
50056;SDS011;36875;49.468;11.200;2023-02-28T04:00:55;1.20;;;0.60;;
50056;SDS011;36875;49.468;11.200;2023-02-28T04:03:32;0.98;;;0.60;;
50056;SDS011;36875;49.468;11.200;2023-02-28T04:05:58;0.90;;;0.52;;
50056;SDS011;36875;49.468;11.200;2023-02-28T04:08:25;1.15;;;0.60;;
50056;SDS011;36875;49.468;11.200;2023-02-28T04:10:51;0.50;;;0.50;;
50056;SDS011;36875;49.468;11.200;2023-02-28T04:13:20;0.63;;;0.50;;
50056;SDS011;36875;49.468;11.200;2023-02-28T04:15:45;0.90;;;0.52;;
50056;SDS011;36875;49.468;11.200;2023-02-28T04:18:11;0.90;;;0.50;;
50056;SDS011;36875;49.468;11.200;2023-02-28T04:20:36;0.63;;;0.40;;
50056;SDS011;36875;49.468;11.200;2023-02-28T04:23:01;0.90;;;0.45;;
50056;SDS011;36875;49.468;11.200;2023-02-28T04:25:28;0.50;;;0.40;;
50056;SDS011;36875;49.468;11.200;2023-02-28T04:27:54;0.50;;;0.50;;
50056;SDS011;36875;49.468;11.200;2023-02-28T04:30:19;0.65;;;0.57;;
50056;SDS011;36875;49.468;11.200;2023-02-28T04:32:45;0.80;;;0.60;;
50056;SDS011;36875;49.468;11.200;2023-02-28T04:35:10;0.93;;;0.60;;
50056;SDS011;36875;49.468;11.200;2023-02-28T04:37:36;0.80;;;0.50;;
50056;SDS011;36875;49.468;11.200;2023-02-28T04:40:02;1.00;;;0.60;;
50056;SDS011;36875;49.468;11.200;2023-02-28T04:42:29;0.77;;;0.50;;
50056;SDS011;36875;49.468;11.200;2023-02-28T04:45:00;0.82;;;0.50;;
50056;SDS011;36875;49.468;11.200;2023-02-28T04:47:26;1.02;;;0.60;;
50056;SDS011;36875;49.468;11.200;2023-02-28T04:49:52;1.17;;;0.50;;
50056;SDS011;36875;49.468;11.200;2023-02-28T04:52:17;0.70;;;0.50;;
50056;SDS011;36875;49.468;11.200;2023-02-28T04:54:43;0.93;;;0.52;;
50056;SDS011;36875;49.468;11.200;2023-02-28T04:57:08;0.75;;;0.63;;
50056;SDS011;36875;49.468;11.200;2023-02-28T04:59:35;1.95;;;0.57;;
50056;SDS011;36875;49.468;11.200;2023-02-28T05:02:01;1.35;;;0.50;;
50056;SDS011;36875;49.468;11.200;2023-02-28T05:04:31;0.65;;;0.40;;
50056;SDS011;36875;49.468;11.200;2023-02-28T05:06:59;1.08;;;0.73;;
50056;SDS011;36875;49.468;11.200;2023-02-28T05:09:24;0.47;;;0.40;;
50056;SDS011;36875;49.468;11.200;2023-02-28T05:11:50;0.45;;;0.40;;
50056;SDS011;36875;49.468;11.200;2023-02-28T05:14:15;0.95;;;0.63;;
50056;SDS011;36875;49.468;11.200;2023-02-28T05:16:42;0.80;;;0.52;;
50056;SDS011;36875;49.468;11.200;2023-02-28T05:19:07;0.73;;;0.57;;
50056;SDS011;36875;49.468;11.200;2023-02-28T05:21:34;1.45;;;0.70;;
50056;SDS011;36875;49.468;11.200;2023-02-28T05:24:01;0.70;;;0.50;;
50056;SDS011;36875;49.468;11.200;2023-02-28T05:26:27;0.68;;;0.55;;
50056;SDS011;36875;49.468;11.200;2023-02-28T05:28:53;0.85;;;0.57;;
50056;SDS011;36875;49.468;11.200;2023-02-28T05:31:20;1.05;;;0.70;;
50056;SDS011;36875;49.468;11.200;2023-02-28T05:33:47;0.82;;;0.70;;
50056;SDS011;36875;49.468;11.200;2023-02-28T05:36:13;0.50;;;0.40;;
50056;SDS011;36875;49.468;11.200;2023-02-28T05:38:39;0.45;;;0.40;;
50056;SDS011;36875;49.468;11.200;2023-02-28T05:41:05;0.75;;;0.40;;
50056;SDS011;36875;49.468;11.200;2023-02-28T05:43:31;0.70;;;0.40;;
50056;SDS011;36875;49.468;11.200;2023-02-28T05:45:57;0.65;;;0.50;;
50056;SDS011;36875;49.468;11.200;2023-02-28T05:48:22;0.88;;;0.60;;
50056;SDS011;36875;49.468;11.200;2023-02-28T05:50:49;0.82;;;0.60;;
50056;SDS011;36875;49.468;11.200;2023-02-28T05:53:15;0.45;;;0.45;;
50056;SDS011;36875;49.468;11.200;2023-02-28T05:55:40;1.20;;;0.50;;
50056;SDS011;36875;49.468;11.200;2023-02-28T05:58:06;0.75;;;0.52;;
50056;SDS011;36875;49.468;11.200;2023-02-28T06:00:31;0.82;;;0.60;;
50056;SDS011;36875;49.468;11.200;2023-02-28T06:02:57;0.65;;;0.55;;
50056;SDS011;36875;49.468;11.200;2023-02-28T06:05:26;0.57;;;0.50;;
50056;SDS011;36875;49.468;11.200;2023-02-28T06:07:54;1.98;;;0.88;;
50056;SDS011;36875;49.468;11.200;2023-02-28T06:10:19;2.10;;;0.93;;
50056;SDS011;36875;49.468;11.200;2023-02-28T06:12:45;1.98;;;1.15;;
50056;SDS011;36875;49.468;11.200;2023-02-28T06:15:11;2.90;;;1.05;;
50056;SDS011;36875;49.468;11.200;2023-02-28T06:17:38;2.58;;;1.30;;
50056;SDS011;36875;49.468;11.200;2023-02-28T06:20:03;7.78;;;1.30;;
50056;SDS011;36875;49.468;11.200;2023-02-28T06:22:30;1.55;;;0.88;;
50056;SDS011;36875;49.468;11.200;2023-02-28T06:24:57;4.10;;;1.20;;
50056;SDS011;36875;49.468;11.200;2023-02-28T06:27:23;4.47;;;1.30;;
50056;SDS011;36875;49.468;11.200;2023-02-28T06:29:49;12.85;;;1.95;;
50056;SDS011;36875;49.468;11.200;2023-02-28T06:32:18;6.43;;;1.50;;
50056;SDS011;36875;49.468;11.200;2023-02-28T06:34:44;7.20;;;1.63;;
50056;SDS011;36875;49.468;11.200;2023-02-28T06:37:10;8.38;;;1.60;;
50056;SDS011;36875;49.468;11.200;2023-02-28T06:39:35;6.57;;;1.40;;
50056;SDS011;36875;49.468;11.200;2023-02-28T06:42:02;4.85;;;1.50;;
50056;SDS011;36875;49.468;11.200;2023-02-28T06:44:28;3.90;;;1.50;;
50056;SDS011;36875;49.468;11.200;2023-02-28T06:47:00;5.35;;;1.50;;
50056;SDS011;36875;49.468;11.200;2023-02-28T06:49:28;6.68;;;1.50;;
50056;SDS011;36875;49.468;11.200;2023-02-28T06:51:53;6.25;;;1.80;;
50056;SDS011;36875;49.468;11.200;2023-02-28T06:54:19;3.15;;;1.67;;
50056;SDS011;36875;49.468;11.200;2023-02-28T06:56:45;7.45;;;1.42;;
50056;SDS011;36875;49.468;11.200;2023-02-28T06:59:13;4.53;;;1.40;;
50056;SDS011;36875;49.468;11.200;2023-02-28T07:01:39;3.58;;;1.50;;
50056;SDS011;36875;49.468;11.200;2023-02-28T07:04:05;7.25;;;2.42;;
50056;SDS011;36875;49.468;11.200;2023-02-28T07:06:31;6.25;;;1.60;;
50056;SDS011;36875;49.468;11.200;2023-02-28T07:08:57;11.75;;;2.75;;
50056;SDS011;36875;49.468;11.200;2023-02-28T07:11:23;8.65;;;2.38;;
50056;SDS011;36875;49.468;11.200;2023-02-28T07:13:50;9.18;;;2.30;;
50056;SDS011;36875;49.468;11.200;2023-02-28T07:16:17;10.13;;;2.47;;
50056;SDS011;36875;49.468;11.200;2023-02-28T07:18:43;7.38;;;2.70;;
50056;SDS011;36875;49.468;11.200;2023-02-28T07:21:11;8.35;;;2.15;;
50056;SDS011;36875;49.468;11.200;2023-02-28T07:23:37;7.35;;;1.85;;
50056;SDS011;36875;49.468;11.200;2023-02-28T07:26:04;6.32;;;1.75;;
50056;SDS011;36875;49.468;11.200;2023-02-28T07:28:30;6.20;;;1.67;;
50056;SDS011;36875;49.468;11.200;2023-02-28T07:30:55;8.88;;;2.20;;
50056;SDS011;36875;49.468;11.200;2023-02-28T07:33:22;6.85;;;2.95;;
50056;SDS011;36875;49.468;11.200;2023-02-28T07:35:49;9.27;;;2.08;;
50056;SDS011;36875;49.468;11.200;2023-02-28T07:38:14;9.65;;;2.40;;
50056;SDS011;36875;49.468;11.200;2023-02-28T07:40:40;7.10;;;2.38;;
50056;SDS011;36875;49.468;11.200;2023-02-28T07:43:05;8.70;;;2.67;;
50056;SDS011;36875;49.468;11.200;2023-02-28T07:45:31;8.10;;;2.40;;
50056;SDS011;36875;49.468;11.200;2023-02-28T07:47:59;10.75;;;2.35;;
50056;SDS011;36875;49.468;11.200;2023-02-28T07:50:26;10.23;;;2.97;;
50056;SDS011;36875;49.468;11.200;2023-02-28T07:52:55;10.93;;;3.08;;
50056;SDS011;36875;49.468;11.200;2023-02-28T07:55:21;8.00;;;2.40;;
50056;SDS011;36875;49.468;11.200;2023-02-28T07:57:46;7.05;;;2.42;;
50056;SDS011;36875;49.468;11.200;2023-02-28T08:00:12;11.93;;;2.78;;
50056;SDS011;36875;49.468;11.200;2023-02-28T08:02:40;8.93;;;2.53;;
50056;SDS011;36875;49.468;11.200;2023-02-28T08:05:06;7.70;;;2.45;;
50056;SDS011;36875;49.468;11.200;2023-02-28T08:07:33;9.13;;;2.63;;
50056;SDS011;36875;49.468;11.200;2023-02-28T08:09:59;7.38;;;2.40;;
50056;SDS011;36875;49.468;11.200;2023-02-28T08:12:25;7.00;;;2.17;;
50056;SDS011;36875;49.468;11.200;2023-02-28T08:14:51;9.07;;;2.90;;
50056;SDS011;36875;49.468;11.200;2023-02-28T08:17:16;7.00;;;2.10;;
50056;SDS011;36875;49.468;11.200;2023-02-28T08:19:42;7.07;;;2.53;;
50056;SDS011;36875;49.468;11.200;2023-02-28T08:22:10;11.63;;;3.97;;
50056;SDS011;36875;49.468;11.200;2023-02-28T08:24:37;9.02;;;2.30;;
50056;SDS011;36875;49.468;11.200;2023-02-28T08:27:04;9.88;;;2.50;;
50056;SDS011;36875;49.468;11.200;2023-02-28T08:29:29;6.70;;;2.30;;
50056;SDS011;36875;49.468;11.200;2023-02-28T08:31:55;7.00;;;2.55;;
50056;SDS011;36875;49.468;11.200;2023-02-28T08:34:21;5.90;;;2.55;;
50056;SDS011;36875;49.468;11.200;2023-02-28T08:36:46;6.43;;;2.08;;
50056;SDS011;36875;49.468;11.200;2023-02-28T08:39:12;6.65;;;2.33;;
50056;SDS011;36875;49.468;11.200;2023-02-28T08:41:39;8.20;;;2.25;;
50056;SDS011;36875;49.468;11.200;2023-02-28T08:44:05;5.10;;;2.38;;
50056;SDS011;36875;49.468;11.200;2023-02-28T08:46:30;4.68;;;2.03;;
50056;SDS011;36875;49.468;11.200;2023-02-28T08:48:56;6.55;;;2.30;;
50056;SDS011;36875;49.468;11.200;2023-02-28T08:51:27;5.25;;;2.13;;
50056;SDS011;36875;49.468;11.200;2023-02-28T08:53:53;6.70;;;2.33;;
50056;SDS011;36875;49.468;11.200;2023-02-28T08:56:21;5.90;;;2.17;;
50056;SDS011;36875;49.468;11.200;2023-02-28T08:58:48;8.85;;;2.50;;
50056;SDS011;36875;49.468;11.200;2023-02-28T09:01:16;9.45;;;2.42;;
50056;SDS011;36875;49.468;11.200;2023-02-28T09:03:43;7.68;;;2.40;;
50056;SDS011;36875;49.468;11.200;2023-02-28T09:06:11;6.82;;;2.08;;
50056;SDS011;36875;49.468;11.200;2023-02-28T09:08:37;6.97;;;2.50;;
50056;SDS011;36875;49.468;11.200;2023-02-28T09:11:02;6.45;;;2.40;;
50056;SDS011;36875;49.468;11.200;2023-02-28T09:13:28;8.48;;;2.55;;
50056;SDS011;36875;49.468;11.200;2023-02-28T09:15:56;5.15;;;2.10;;
50056;SDS011;36875;49.468;11.200;2023-02-28T09:18:23;6.32;;;2.35;;
50056;SDS011;36875;49.468;11.200;2023-02-28T09:20:48;7.53;;;2.60;;
50056;SDS011;36875;49.468;11.200;2023-02-28T09:23:14;9.23;;;2.42;;
50056;SDS011;36875;49.468;11.200;2023-02-28T09:25:44;7.72;;;2.38;;
50056;SDS011;36875;49.468;11.200;2023-02-28T09:28:11;9.15;;;2.35;;
50056;SDS011;36875;49.468;11.200;2023-02-28T09:30:37;7.05;;;2.33;;
50056;SDS011;36875;49.468;11.200;2023-02-28T09:33:04;5.88;;;2.20;;
50056;SDS011;36875;49.468;11.200;2023-02-28T09:35:29;6.78;;;2.15;;
50056;SDS011;36875;49.468;11.200;2023-02-28T09:37:55;8.50;;;2.88;;
50056;SDS011;36875;49.468;11.200;2023-02-28T09:40:22;8.68;;;2.45;;
50056;SDS011;36875;49.468;11.200;2023-02-28T09:42:50;7.50;;;2.60;;
50056;SDS011;36875;49.468;11.200;2023-02-28T09:45:20;6.43;;;1.90;;
50056;SDS011;36875;49.468;11.200;2023-02-28T09:47:49;6.38;;;2.33;;
50056;SDS011;36875;49.468;11.200;2023-02-28T09:50:20;6.50;;;2.22;;
50056;SDS011;36875;49.468;11.200;2023-02-28T09:52:54;4.45;;;2.20;;
50056;SDS011;36875;49.468;11.200;2023-02-28T09:55:22;7.53;;;2.60;;
50056;SDS011;36875;49.468;11.200;2023-02-28T09:57:53;9.00;;;2.40;;
50056;SDS011;36875;49.468;11.200;2023-02-28T10:00:22;7.80;;;2.60;;
50056;SDS011;36875;49.468;11.200;2023-02-28T10:02:58;7.72;;;2.10;;
50056;SDS011;36875;49.468;11.200;2023-02-28T10:05:34;8.50;;;2.35;;
50056;SDS011;36875;49.468;11.200;2023-02-28T10:08:08;5.78;;;2.30;;
50056;SDS011;36875;49.468;11.200;2023-02-28T10:10:40;7.43;;;2.10;;
50056;SDS011;36875;49.468;11.200;2023-02-28T10:13:12;5.70;;;2.30;;
50056;SDS011;36875;49.468;11.200;2023-02-28T10:15:42;4.97;;;2.28;;
50056;SDS011;36875;49.468;11.200;2023-02-28T10:18:12;4.70;;;1.90;;
50056;SDS011;36875;49.468;11.200;2023-02-28T10:20:43;5.68;;;2.10;;
50056;SDS011;36875;49.468;11.200;2023-02-28T10:23:11;7.28;;;2.25;;
50056;SDS011;36875;49.468;11.200;2023-02-28T10:25:42;6.50;;;2.40;;
50056;SDS011;36875;49.468;11.200;2023-02-28T10:28:14;6.18;;;2.33;;
50056;SDS011;36875;49.468;11.200;2023-02-28T10:30:41;9.20;;;3.05;;
50056;SDS011;36875;49.468;11.200;2023-02-28T10:33:12;8.23;;;2.90;;
50056;SDS011;36875;49.468;11.200;2023-02-28T10:35:45;11.77;;;3.40;;
50056;SDS011;36875;49.468;11.200;2023-02-28T10:38:13;8.82;;;2.83;;
50056;SDS011;36875;49.468;11.200;2023-02-28T10:40:41;7.50;;;2.35;;
50056;SDS011;36875;49.468;11.200;2023-02-28T10:43:16;6.63;;;2.20;;
50056;SDS011;36875;49.468;11.200;2023-02-28T10:45:52;7.72;;;2.50;;
50056;SDS011;36875;49.468;11.200;2023-02-28T10:48:26;6.28;;;2.47;;
50056;SDS011;36875;49.468;11.200;2023-02-28T10:50:56;7.65;;;2.75;;
50056;SDS011;36875;49.468;11.200;2023-02-28T10:53:28;8.45;;;2.53;;
50056;SDS011;36875;49.468;11.200;2023-02-28T10:55:58;4.55;;;2.60;;
50056;SDS011;36875;49.468;11.200;2023-02-28T10:58:26;5.63;;;2.50;;
50056;SDS011;36875;49.468;11.200;2023-02-28T11:00:53;8.13;;;2.35;;
50056;SDS011;36875;49.468;11.200;2023-02-28T11:03:23;6.72;;;2.10;;
50056;SDS011;36875;49.468;11.200;2023-02-28T11:05:53;5.03;;;2.25;;
50056;SDS011;36875;49.468;11.200;2023-02-28T11:08:21;6.63;;;2.13;;
50056;SDS011;36875;49.468;11.200;2023-02-28T11:10:47;5.25;;;1.98;;
50056;SDS011;36875;49.468;11.200;2023-02-28T11:13:19;5.82;;;2.42;;
50056;SDS011;36875;49.468;11.200;2023-02-28T11:15:50;4.72;;;2.45;;
50056;SDS011;36875;49.468;11.200;2023-02-28T11:18:21;8.18;;;2.17;;
50056;SDS011;36875;49.468;11.200;2023-02-28T11:20:50;7.47;;;2.40;;
50056;SDS011;36875;49.468;11.200;2023-02-28T11:23:17;4.65;;;1.90;;
50056;SDS011;36875;49.468;11.200;2023-02-28T11:25:48;5.35;;;1.95;;
50056;SDS011;36875;49.468;11.200;2023-02-28T11:31:00;6.32;;;2.08;;
50056;SDS011;36875;49.468;11.200;2023-02-28T11:33:30;5.85;;;1.90;;
50056;SDS011;36875;49.468;11.200;2023-02-28T11:35:58;4.28;;;2.20;;
50056;SDS011;36875;49.468;11.200;2023-02-28T11:38:28;5.30;;;2.47;;
50056;SDS011;36875;49.468;11.200;2023-02-28T11:43:56;3.85;;;1.80;;
50056;SDS011;36875;49.468;11.200;2023-02-28T11:46:32;5.25;;;2.00;;
50056;SDS011;36875;49.468;11.200;2023-02-28T11:49:10;6.35;;;2.08;;
50056;SDS011;36875;49.468;11.200;2023-02-28T11:51:47;5.82;;;2.10;;
50056;SDS011;36875;49.468;11.200;2023-02-28T11:54:27;3.92;;;1.98;;
50056;SDS011;36875;49.468;11.200;2023-02-28T11:57:03;3.85;;;2.17;;
50056;SDS011;36875;49.468;11.200;2023-02-28T11:59:47;6.97;;;2.55;;
50056;SDS011;36875;49.468;11.200;2023-02-28T12:02:23;6.93;;;4.25;;
50056;SDS011;36875;49.468;11.200;2023-02-28T12:07:48;8.43;;;3.22;;
50056;SDS011;36875;49.468;11.200;2023-02-28T12:10:25;5.28;;;2.80;;
50056;SDS011;36875;49.468;11.200;2023-02-28T12:12:59;6.28;;;3.00;;
50056;SDS011;36875;49.468;11.200;2023-02-28T12:18:51;6.30;;;3.17;;
50056;SDS011;36875;49.468;11.200;2023-02-28T12:21:29;7.15;;;2.70;;
50056;SDS011;36875;49.468;11.200;2023-02-28T12:24:09;6.70;;;2.90;;
50056;SDS011;36875;49.468;11.200;2023-02-28T12:27:05;6.40;;;2.67;;
50056;SDS011;36875;49.468;11.200;2023-02-28T12:29:37;6.15;;;2.80;;
50056;SDS011;36875;49.468;11.200;2023-02-28T12:32:09;6.55;;;2.88;;
50056;SDS011;36875;49.468;11.200;2023-02-28T12:34:41;5.43;;;2.60;;
50056;SDS011;36875;49.468;11.200;2023-02-28T12:39:40;4.95;;;2.47;;
50056;SDS011;36875;49.468;11.200;2023-02-28T12:42:11;6.97;;;2.65;;
50056;SDS011;36875;49.468;11.200;2023-02-28T12:44:43;5.38;;;2.40;;
50056;SDS011;36875;49.468;11.200;2023-02-28T12:47:15;6.93;;;2.60;;
50056;SDS011;36875;49.468;11.200;2023-02-28T12:49:45;4.57;;;2.00;;
50056;SDS011;36875;49.468;11.200;2023-02-28T12:52:16;5.47;;;2.28;;
50056;SDS011;36875;49.468;11.200;2023-02-28T12:54:46;7.75;;;2.35;;
50056;SDS011;36875;49.468;11.200;2023-02-28T12:57:20;4.63;;;2.22;;
50056;SDS011;36875;49.468;11.200;2023-02-28T12:59:54;8.00;;;2.50;;
50056;SDS011;36875;49.468;11.200;2023-02-28T13:05:19;7.78;;;2.45;;
50056;SDS011;36875;49.468;11.200;2023-02-28T13:10:59;5.28;;;2.40;;
50056;SDS011;36875;49.468;11.200;2023-02-28T13:13:27;3.95;;;1.98;;
50056;SDS011;36875;49.468;11.200;2023-02-28T13:16:03;5.20;;;2.25;;
50056;SDS011;36875;49.468;11.200;2023-02-28T13:18:32;5.10;;;2.35;;
50056;SDS011;36875;49.468;11.200;2023-02-28T13:21:02;4.53;;;2.45;;
50056;SDS011;36875;49.468;11.200;2023-02-28T13:23:38;5.40;;;2.17;;
50056;SDS011;36875;49.468;11.200;2023-02-28T13:26:06;3.80;;;2.15;;
50056;SDS011;36875;49.468;11.200;2023-02-28T13:37:54;10.23;;;5.85;;
50056;SDS011;36875;49.468;11.200;2023-02-28T13:40:49;9.43;;;5.60;;
50056;SDS011;36875;49.468;11.200;2023-02-28T13:43:16;8.98;;;5.32;;
50056;SDS011;36875;49.468;11.200;2023-02-28T13:45:57;7.30;;;4.18;;
50056;SDS011;36875;49.468;11.200;2023-02-28T13:48:33;8.38;;;4.47;;
50056;SDS011;36875;49.468;11.200;2023-02-28T13:50:58;6.65;;;3.70;;
50056;SDS011;36875;49.468;11.200;2023-02-28T13:53:30;7.35;;;3.42;;
50056;SDS011;36875;49.468;11.200;2023-02-28T13:56:10;7.50;;;3.60;;
50056;SDS011;36875;49.468;11.200;2023-02-28T13:58:52;8.38;;;3.78;;
50056;SDS011;36875;49.468;11.200;2023-02-28T14:04:29;10.55;;;3.42;;
50056;SDS011;36875;49.468;11.200;2023-02-28T14:07:26;6.07;;;3.10;;
50056;SDS011;36875;49.468;11.200;2023-02-28T14:09:56;6.20;;;2.97;;
50056;SDS011;36875;49.468;11.200;2023-02-28T14:15:26;5.85;;;2.60;;
50056;SDS011;36875;49.468;11.200;2023-02-28T14:18:15;7.60;;;2.88;;
50056;SDS011;36875;49.468;11.200;2023-02-28T14:20:43;7.22;;;2.95;;
50056;SDS011;36875;49.468;11.200;2023-02-28T14:23:13;4.82;;;2.30;;
50056;SDS011;36875;49.468;11.200;2023-02-28T14:25:51;8.15;;;2.45;;
50056;SDS011;36875;49.468;11.200;2023-02-28T14:28:28;5.30;;;2.55;;
50056;SDS011;36875;49.468;11.200;2023-02-28T14:31:10;5.32;;;2.50;;
50056;SDS011;36875;49.468;11.200;2023-02-28T14:36:31;7.15;;;2.50;;
50056;SDS011;36875;49.468;11.200;2023-02-28T14:38:59;6.75;;;2.88;;
50056;SDS011;36875;49.468;11.200;2023-02-28T14:41:30;8.77;;;3.00;;
50056;SDS011;36875;49.468;11.200;2023-02-28T14:44:00;8.63;;;2.83;;
50056;SDS011;36875;49.468;11.200;2023-02-28T14:46:28;6.75;;;2.67;;
50056;SDS011;36875;49.468;11.200;2023-02-28T14:49:02;6.97;;;2.58;;
50056;SDS011;36875;49.468;11.200;2023-02-28T14:51:29;7.32;;;2.40;;
50056;SDS011;36875;49.468;11.200;2023-02-28T14:53:56;15.63;;;2.88;;
50056;SDS011;36875;49.468;11.200;2023-02-28T14:56:24;5.35;;;2.50;;
50056;SDS011;36875;49.468;11.200;2023-02-28T14:58:53;10.32;;;3.00;;
50056;SDS011;36875;49.468;11.200;2023-02-28T15:01:21;15.57;;;3.05;;
50056;SDS011;36875;49.468;11.200;2023-02-28T15:03:48;5.53;;;2.60;;
50056;SDS011;36875;49.468;11.200;2023-02-28T15:06:24;8.38;;;2.15;;
50056;SDS011;36875;49.468;11.200;2023-02-28T15:11:35;7.63;;;2.13;;
50056;SDS011;36875;49.468;11.200;2023-02-28T15:14:03;9.73;;;3.80;;
50056;SDS011;36875;49.468;11.200;2023-02-28T15:16:30;8.52;;;3.28;;
50056;SDS011;36875;49.468;11.200;2023-02-28T15:19:00;7.68;;;2.33;;
50056;SDS011;36875;49.468;11.200;2023-02-28T15:21:29;7.55;;;2.50;;
50056;SDS011;36875;49.468;11.200;2023-02-28T15:23:57;8.13;;;2.50;;
50056;SDS011;36875;49.468;11.200;2023-02-28T15:26:26;7.70;;;2.60;;
50056;SDS011;36875;49.468;11.200;2023-02-28T15:28:58;7.38;;;2.40;;
50056;SDS011;36875;49.468;11.200;2023-02-28T15:31:27;9.25;;;2.65;;